White, PA (15490)

4:25 PM EDT on August 21, 2014 (GMT -0400)
Indian Head | Change Station
CLOSE
Current Station
Personal Weather Station
Location: Indian Head, PA
Elevation: 1421 ft
Nearby Weather Stations

Elev 1421 ft 40.03 °N, 79.40 °W | Updated 4 minutes ago

Mostly Cloudy
Mostly Cloudy
76.3 °F
Feels Like 78 °F
N
2.2
Wind Variable Wind from South

Today
High -- | Low -- °F
--% Chance of Precip.
Yesterday
High -- | Low -- °F
Precip. -- in
6:34 AM 8:05 PM
Waning Crescent, 12% visible
Pressure 30.06 in
Visibility 10.0 miles
Clouds Mostly Cloudy 3000 ft
Heat Index 78 °F
Dew Point 67 °F
Humidity 74%
Rainfall 0.00 in
Snow Depth Not available.
UV 4 out of 12
Pollen 9.30 out of 12
Air Quality Not available.
Flu Activity Not available.
METAR KLBE 211950Z 23015KT 10SM BKN030 24/22 A3006

More Conditions Fewer Conditions

Pressure 30.06 in
Visibility 10.0 miles
Clouds Mostly Cloudy 3000 ft
Heat Index 78 °F
Dew Point 67 °F
Humidity 74%
Rainfall 0.00 in
Snow Depth Not available.
UV 4 out of 12
Pollen 9.30 out of 12
Air Quality Not available.
Flu Activity Not available.
METAR KLBE 211950Z 23015KT 10SM BKN030 24/22 A3006

More Conditions Fewer Conditions

10-Day Weather Forecast

Almanac

Astronomy

Aug. 21, 2014 Rise Set
Actual Time 6:34 AM EDT 8:05 PM EDT
Civil Twilight 6:06 AM EDT 8:34 PM EDT
Nautical Twilight 5:31 AM EDT 9:08 PM EDT
Astronomical Twilight 4:55 AM EDT 9:45 PM EDT
Moon 3:03 AM EDT 5:33 PM EDT
Length of Visible Light 14h 28m
Length of Day
13h 31m
Tomorrow will be 2m 25s shorter.
Waning Crescent, 12% of the Moon is Illuminated
Today
Waning Crescent
Aug 25
New
Sep 2
First Quarter
Sep 8
Full
Sep 15
Last Quarter

Today's Extremes

State Highs State Lows

Community

WunderPhotos

Upload Photos

1,746,018 photos uploaded!

WunderBlogs® & News

Nearby

Snow Depth

Station Depth Elevation
No new snow has been reported.

Earthquake Activity

City Distance Mag. Time & Date
No recent earthquake activity has been reported nearby.
Minimum magnitude displayed is 2.5.

Coastal Water Temperatures

Place Temperature
No Stations Reporting

Nearby Weather Stations